Diggle, United Kingdom
Current Conditions -  °F | °C
As of 4:20 AM on Wednesday 26 Nov 2014 (Local Time) from EGCC Reporting Station
Light Rain Light Rain  
Wind Chill: 39°   Ceiling: 3800
Heat Index: 43°   Visibility: 4mi
Dew Point: 43°   Wind: 7mph
Humidity: 100%   Direction: 10°N
Pressure: 29.97"   Gusts: NA
Location:  53.57°N, 2°W
Report Text: EGCC 260420Z 01006KT 6000 -RA OVC038TCU 06/06 Q1015 TEMPO RA
Loading
Personal Weather Stations






























Interactive Weather Map New forecast layout! Learn more

10-Day Weather Forecast

Advertisements
Track Severe Weather on mobile